Vremea acum in Hațeg - Romania

Vrei sa afli care e starea vremii acum in Hunedoara - Romania? Dorim sa iti furnizam starea vremii pentru Hunedoara - Romania. Starea vremii Hunedoara - Romania pentru astazi.

Vremea acum in Hațeg

Temperatura: 8 °C

Este: Senin
Se simte ca: 7.9 °C
Innorat: 4 %
Precipitatii: 0 %
Presiune atmosferica: 1018 hPa
Umiditate: 78%
Vizibilitate: 10 km
Vantul bate din SSW cu 4 km/h

Evolutia vremii in Hațeg pe ore

Ora: 04:00
Senin
Temperatura: 8.3°C
Sansa de precipitatii: 0%
Ora Descriere Temp Se simte Precipitatii Umiditate Vant
00:00Senin10°9.6°0%71%SSW 5.4 KM/H
01:00Senin9.6°9.2°0%72%SSW 5 KM/H
02:00Senin9.2°8.9°0%74%SSW 4.7 KM/H
03:00Senin8.7°8.6°0%75%SSW 4.3 KM/H
04:00Senin8.3°8.4°0%77%SSW 3.6 KM/H
05:00Senin7.9°0%78%SSW 4 KM/H
06:00Senin7.8°7.3°0%79%SSW 4.7 KM/H
07:00Senin8.7°8.8°0%77%SSW 3.6 KM/H
08:00Senin13°13°0%67%SSE 2.5 KM/H
09:00Senin15.8°15.8°0%58%E 2.9 KM/H
10:00Senin17.9°18°0%53%ENE 4.3 KM/H
11:00Senin19.9°19.9°0%48%ENE 5 KM/H
12:00Senin21.6°21.6°0%42%ENE 6.1 KM/H
13:00Senin23.1°24.2°0%37%ENE 7.2 KM/H
14:00Senin24.3°24.5°0%33%ENE 8.3 KM/H
15:00Senin24.9°24.7°0%31%ENE 9.7 KM/H
16:00Senin24.7°24.7°0%33%NE 10.4 KM/H
17:00Senin24.3°24.6°0%34%N 9 KM/H
18:00Senin23.8°24.5°0%36%N 6.8 KM/H
19:00Thundery outbreaks in nearby21.5°21.5°0%49%NW 5 KM/H
20:00Senin17.4°17.4°0%57%WSW 4.3 KM/H
21:00Senin15.3°15.3°0%61%SSW 6.1 KM/H
22:00Senin13.6°13.6°0%67%SSW 5.8 KM/H
23:00Senin12.9°12.8°0%69%SSW 6.1 KM/H




tutorials